Time,TemperatureF,DewpointF,PressureIn,WindDirection,WindDirectionDegrees,WindSpeedMPH,WindSpeedGustMPH,Humidity,HourlyPrecipIn,Conditions,Clouds,dailyrainin,SoftwareType,DateUTC
2013-05-18 00:01:00,54.1,47.4,29.98,NE,45,0.0,0.0,78,0.00,,,0.00,WUHU21623XXSP,2013-05-18 05:01:00,
2013-05-18 00:06:00,54.1,47.4,29.99,ENE,67,0.0,0.0,78,0.00,,,0.00,WUHU21623XXSP,2013-05-18 05:06:00,
2013-05-18 00:11:00,54.1,47.1,29.99,NE,45,0.0,0.0,77,0.00,,,0.00,WUHU21623XXSP,2013-05-18 05:11:00,
2013-05-18 00:16:00,54.1,47.1,29.99,NNE,22,0.0,0.0,77,0.00,,,0.00,WUHU21623XXSP,2013-05-18 05:16:00,
2013-05-18 00:21:00,54.1,47.1,29.99,NE,45,0.0,0.0,77,0.00,,,0.00,WUHU21623XXSP,2013-05-18 05:21:00,
2013-05-18 00:26:00,53.6,46.9,29.98,NE,45,0.0,0.0,78,0.00,,,0.00,WUHU21623XXSP,2013-05-18 05:26:00,
2013-05-18 00:31:00,53.4,46.8,29.99,NE,45,0.0,0.0,78,0.00,,,0.00,WUHU21623XXSP,2013-05-18 05:31:00,
2013-05-18 00:36:00,53.4,46.8,29.99,NE,45,0.0,0.0,78,0.00,,,0.00,WUHU21623XXSP,2013-05-18 05:36:00,
2013-05-18 00:41:00,53.4,46.8,29.99,NNE,22,0.0,0.0,78,0.00,,,0.00,WUHU21623XXSP,2013-05-18 05:41:00,
2013-05-18 00:46:00,53.1,46.4,29.99,NNE,22,0.0,0.0,78,0.00,,,0.00,WUHU21623XXSP,2013-05-18 05:46:00,
2013-05-18 00:51:00,52.7,46.6,29.99,NNE,22,0.0,0.0,79,0.00,,,0.00,WUHU21623XXSP,2013-05-18 05:51:00,
2013-05-18 00:56:00,52.7,46.4,29.99,NE,45,0.0,0.0,79,0.00,,,0.00,WUHU21623XXSP,2013-05-18 05:56:00,
2013-05-18 01:01:00,52.9,46.6,29.99,NE,45,0.0,0.0,79,0.00,,,0.00,WUHU21623XXSP,2013-05-18 06:01:00,
2013-05-18 01:06:00,52.9,46.6,29.99,North,0,0.0,0.0,79,0.00,,,0.00,WUHU21623XXSP,2013-05-18 06:06:00,
2013-05-18 01:11:00,52.7,46.4,30.00,North,0,0.0,0.0,79,0.00,,,0.00,WUHU21623XXSP,2013-05-18 06:11:00,
2013-05-18 01:16:00,52.7,46.1,30.00,NNE,22,0.0,0.0,78,0.00,,,0.00,WUHU21623XXSP,2013-05-18 06:16:00,
2013-05-18 01:21:00,52.7,46.1,29.99,NNE,22,0.0,0.0,78,0.00,,,0.00,WUHU21623XXSP,2013-05-18 06:21:00,
2013-05-18 01:26:00,52.3,46.0,30.00,NNE,22,0.0,0.0,79,0.00,,,0.00,WUHU21623XXSP,2013-05-18 06:26:00,
2013-05-18 01:31:00,52.0,45.7,29.99,NNE,22,0.0,0.0,79,0.00,,,0.00,WUHU21623XXSP,2013-05-18 06:31:00,
2013-05-18 01:36:00,51.6,45.7,30.00,NNE,22,0.0,0.0,80,0.00,,,0.00,WUHU21623XXSP,2013-05-18 06:36:00,
2013-05-18 01:41:00,51.4,45.8,30.01,North,0,0.0,0.0,81,0.00,,,0.00,WUHU21623XXSP,2013-05-18 06:41:00,
2013-05-18 01:46:00,51.6,46.0,30.00,North,0,0.0,0.0,81,0.00,,,0.00,WUHU21623XXSP,2013-05-18 06:46:00,
2013-05-18 01:51:00,52.0,46.3,30.01,NNE,22,0.0,0.0,81,0.00,,,0.00,WUHU21623XXSP,2013-05-18 06:51:00,
2013-05-18 01:56:00,52.0,46.7,30.01,North,0,0.0,0.0,82,0.00,,,0.00,WUHU21623XXSP,2013-05-18 06:56:00,
2013-05-18 02:01:00,52.0,46.7,30.01,North,0,0.0,0.0,82,0.00,,,0.00,WUHU21623XXSP,2013-05-18 07:01:00,
2013-05-18 02:06:00,52.2,46.8,30.01,North,0,0.0,0.0,82,0.00,,,0.00,WUHU21623XXSP,2013-05-18 07:06:00,
2013-05-18 02:11:00,52.5,46.9,30.01,NNE,22,0.0,0.0,81,0.00,,,0.00,WUHU21623XXSP,2013-05-18 07:11:00,
2013-05-18 02:16:00,52.7,47.4,30.01,NNE,22,0.0,0.0,82,0.00,,,0.00,WUHU21623XXSP,2013-05-18 07:16:00,
2013-05-18 02:21:00,52.7,47.7,30.01,NNE,22,0.0,0.0,83,0.00,,,0.00,WUHU21623XXSP,2013-05-18 07:21:00,
2013-05-18 02:26:00,52.7,47.7,30.00,NNE,22,0.0,0.0,83,0.00,,,0.00,WUHU21623XXSP,2013-05-18 07:26:00,
2013-05-18 02:31:00,52.5,47.8,30.00,NNE,22,0.0,0.0,84,0.00,,,0.00,WUHU21623XXSP,2013-05-18 07:31:00,
2013-05-18 02:36:00,52.3,47.6,30.01,ENE,67,0.0,0.0,84,0.00,,,0.00,WUHU21623XXSP,2013-05-18 07:36:00,
2013-05-18 02:41:00,52.9,47.6,30.01,NNE,22,0.0,0.0,82,0.00,,,0.00,WUHU21623XXSP,2013-05-18 07:41:00,
2013-05-18 02:46:00,53.4,47.8,30.01,NNE,22,0.0,0.0,81,0.00,,,0.00,WUHU21623XXSP,2013-05-18 07:46:00,
2013-05-18 02:51:00,53.4,47.8,30.01,NE,45,0.0,0.0,81,0.00,,,0.00,WUHU21623XXSP,2013-05-18 07:51:00,
2013-05-18 02:56:00,53.8,48.1,30.00,NNE,22,0.0,0.0,81,0.00,,,0.00,WUHU21623XXSP,2013-05-18 07:56:00,
2013-05-18 03:01:00,53.8,48.1,30.01,NE,45,0.0,0.0,81,0.00,,,0.00,WUHU21623XXSP,2013-05-18 08:01:00,
2013-05-18 03:06:00,53.8,48.1,30.01,ENE,67,0.0,0.0,81,0.00,,,0.00,WUHU21623XXSP,2013-05-18 08:06:00,
2013-05-18 03:11:00,53.8,48.1,30.01,ENE,67,0.0,0.0,81,0.00,,,0.00,WUHU21623XXSP,2013-05-18 08:11:00,
2013-05-18 03:16:00,53.8,48.1,30.01,ENE,67,0.0,0.0,81,0.00,,,0.00,WUHU21623XXSP,2013-05-18 08:16:00,
2013-05-18 03:21:00,53.8,48.1,30.00,East,90,0.0,0.0,81,0.00,,,0.00,WUHU21623XXSP,2013-05-18 08:21:00,
2013-05-18 03:26:00,53.8,48.1,30.00,ESE,112,0.0,0.0,81,0.00,,,0.00,WUHU21623XXSP,2013-05-18 08:26:00,
2013-05-18 03:31:00,53.8,48.1,30.00,ENE,67,0.0,0.0,81,0.00,,,0.00,WUHU21623XXSP,2013-05-18 08:31:00,
2013-05-18 03:36:00,53.8,47.8,30.00,NNE,22,0.0,0.0,80,0.00,,,0.00,WUHU21623XXSP,2013-05-18 08:36:00,
2013-05-18 03:41:00,53.6,47.7,30.00,ESE,112,0.0,0.0,80,0.00,,,0.00,WUHU21623XXSP,2013-05-18 08:41:00,
2013-05-18 03:46:00,53.4,47.5,29.99,ESE,112,0.0,0.0,80,0.00,,,0.00,WUHU21623XXSP,2013-05-18 08:46:00,
2013-05-18 03:51:00,53.4,47.5,29.99,East,90,1.8,1.8,80,0.00,,,0.00,WUHU21623XXSP,2013-05-18 08:51:00,
2013-05-18 03:56:00,53.4,47.5,29.99,SE,135,0.0,1.8,80,0.00,,,0.00,WUHU21623XXSP,2013-05-18 08:56:00,
2013-05-18 04:01:00,53.4,47.5,29.99,ESE,112,0.0,0.0,80,0.00,,,0.00,WUHU21623XXSP,2013-05-18 09:01:00,
2013-05-18 04:06:00,53.8,47.8,29.99,SSE,157,0.0,0.0,80,0.00,,,0.00,WUHU21623XXSP,2013-05-18 09:06:00,
2013-05-18 04:11:00,53.8,47.8,29.99,East,90,0.0,0.0,80,0.00,,,0.00,WUHU21623XXSP,2013-05-18 09:11:00,
2013-05-18 04:16:00,53.8,47.8,29.99,ENE,67,0.0,0.0,80,0.00,,,0.00,WUHU21623XXSP,2013-05-18 09:16:00,
2013-05-18 04:21:00,53.8,47.8,29.99,SE,135,0.0,0.0,80,0.00,,,0.00,WUHU21623XXSP,2013-05-18 09:21:00,
2013-05-18 04:26:00,53.8,47.8,29.99,East,90,0.0,2.9,80,0.00,,,0.00,WUHU21623XXSP,2013-05-18 09:26:00,
2013-05-18 04:31:00,53.8,47.8,29.99,East,90,0.0,2.9,80,0.00,,,0.00,WUHU21623XXSP,2013-05-18 09:31:00,
2013-05-18 04:36:00,53.8,47.8,29.99,SE,135,0.0,0.0,80,0.00,,,0.00,WUHU21623XXSP,2013-05-18 09:36:00,
2013-05-18 04:41:00,53.8,47.8,29.99,ESE,112,0.0,0.0,80,0.00,,,0.00,WUHU21623XXSP,2013-05-18 09:41:00,
2013-05-18 04:46:00,53.8,47.8,29.99,SE,135,0.0,0.0,80,0.00,,,0.00,WUHU21623XXSP,2013-05-18 09:46:00,
2013-05-18 04:51:00,53.8,47.8,29.99,SE,135,0.0,0.0,80,0.00,,,0.00,WUHU21623XXSP,2013-05-18 09:51:00,
2013-05-18 04:56:00,53.4,47.5,29.99,SE,135,0.0,0.0,80,0.00,,,0.00,WUHU21623XXSP,2013-05-18 09:56:00,
2013-05-18 05:01:00,53.4,47.5,29.99,ESE,112,0.9,0.9,80,0.00,,,0.00,WUHU21623XXSP,2013-05-18 10:01:00,
2013-05-18 05:06:00,53.4,47.5,29.99,East,90,2.0,3.8,80,0.00,,,0.00,WUHU21623XXSP,2013-05-18 10:06:00,
2013-05-18 05:11:00,53.4,47.5,29.98,ESE,112,2.5,4.3,80,0.00,,,0.00,WUHU21623XXSP,2013-05-18 10:11:00,
2013-05-18 05:16:00,53.4,47.5,29.98,East,90,0.0,4.3,80,0.00,,,0.00,WUHU21623XXSP,2013-05-18 10:16:00,
2013-05-18 05:21:00,53.4,47.5,29.98,ESE,112,0.0,2.5,80,0.00,,,0.00,WUHU21623XXSP,2013-05-18 10:21:00,
2013-05-18 05:26:00,53.2,47.3,29.98,East,90,0.0,0.0,80,0.00,,,0.00,WUHU21623XXSP,2013-05-18 10:26:00,
2013-05-18 05:31:00,53.2,47.3,29.98,East,90,0.0,0.0,80,0.00,,,0.00,WUHU21623XXSP,2013-05-18 10:31:00,
2013-05-18 05:36:00,52.9,46.9,29.99,East,90,0.0,0.0,80,0.00,,,0.00,WUHU21623XXSP,2013-05-18 10:36:00,
2013-05-18 05:41:00,52.9,46.9,29.99,SSE,157,0.0,0.0,80,0.00,,,0.00,WUHU21623XXSP,2013-05-18 10:41:00,
2013-05-18 05:46:00,52.7,47.1,29.98,ESE,112,2.0,2.0,81,0.00,,,0.00,WUHU21623XXSP,2013-05-18 10:46:00,
2013-05-18 05:51:00,52.7,47.1,29.99,East,90,0.0,2.0,81,0.00,,,0.00,WUHU21623XXSP,2013-05-18 10:51:00,
2013-05-18 05:56:00,52.9,47.2,29.98,SE,135,0.0,1.6,81,0.00,,,0.00,WUHU21623XXSP,2013-05-18 10:56:00,
2013-05-18 06:00:00,52.9,47.2,29.98,ESE,112,0.0,3.1,81,0.00,,,0.00,WUHU21623XXSP,2013-05-18 11:00:00,
2013-05-18 06:05:00,53.1,47.4,29.98,ESE,112,1.8,3.1,81,0.00,,,0.00,WUHU21623XXSP,2013-05-18 11:05:00,
2013-05-18 06:10:00,53.2,47.6,29.98,ESE,112,0.0,1.8,81,0.00,,,0.00,WUHU21623XXSP,2013-05-18 11:10:00,
2013-05-18 06:15:00,53.2,47.6,29.99,SE,135,0.0,0.0,81,0.00,,,0.00,WUHU21623XXSP,2013-05-18 11:15:00,
2013-05-18 06:20:00,53.4,47.8,30.00,SE,135,0.0,0.0,81,0.00,,,0.00,WUHU21623XXSP,2013-05-18 11:20:00,
2013-05-18 06:25:00,53.4,47.8,30.00,ENE,67,0.0,0.0,81,0.00,,,0.00,WUHU21623XXSP,2013-05-18 11:25:00,
2013-05-18 06:30:00,53.8,48.1,30.00,ESE,112,0.0,0.0,81,0.00,,,0.00,WUHU21623XXSP,2013-05-18 11:30:00,
2013-05-18 06:35:00,54.1,48.5,30.00,East,90,0.0,0.0,81,0.00,,,0.00,WUHU21623XXSP,2013-05-18 11:35:00,
2013-05-18 06:40:00,54.3,48.6,30.00,West,270,0.0,0.0,81,0.00,,,0.00,WUHU21623XXSP,2013-05-18 11:40:00,
2013-05-18 06:45:00,54.5,48.8,30.00,ESE,112,0.0,0.0,81,0.00,,,0.00,WUHU21623XXSP,2013-05-18 11:45:00,
2013-05-18 06:50:00,54.5,48.8,30.00,ESE,112,0.0,0.0,81,0.00,,,0.00,WUHU21623XXSP,2013-05-18 11:50:00,
2013-05-18 06:55:00,54.9,49.1,30.01,ENE,67,0.0,0.0,81,0.00,,,0.00,WUHU21623XXSP,2013-05-18 11:55:00,
2013-05-18 07:00:00,55.0,49.3,30.00,West,270,0.0,0.0,81,0.00,,,0.00,WUHU21623XXSP,2013-05-18 12:00:00,
2013-05-18 07:05:00,55.2,49.4,30.00,ESE,112,0.0,0.0,81,0.00,,,0.00,WUHU21623XXSP,2013-05-18 12:05:00,
2013-05-18 07:10:00,55.4,49.6,30.01,East,90,2.7,2.7,81,0.00,,,0.00,WUHU21623XXSP,2013-05-18 12:10:00,
2013-05-18 07:15:00,55.9,50.5,30.01,ESE,112,0.0,2.7,82,0.00,,,0.00,WUHU21623XXSP,2013-05-18 12:15:00,
2013-05-18 07:20:00,56.3,50.5,30.00,ESE,112,1.8,2.2,81,0.00,,,0.00,WUHU21623XXSP,2013-05-18 12:20:00,
2013-05-18 07:25:00,56.5,50.7,30.00,SE,135,0.0,4.0,81,0.00,,,0.00,WUHU21623XXSP,2013-05-18 12:25:00,
2013-05-18 07:30:00,56.5,50.7,30.00,SE,135,0.0,4.0,81,0.00,,,0.00,WUHU21623XXSP,2013-05-18 12:30:00,
2013-05-18 07:35:00,57.0,50.9,29.99,ESE,112,4.5,5.1,80,0.00,,,0.00,WUHU21623XXSP,2013-05-18 12:35:00,
2013-05-18 07:40:00,57.2,51.1,30.00,SE,135,0.0,5.1,80,0.00,,,0.00,WUHU21623XXSP,2013-05-18 12:40:00,
2013-05-18 07:45:00,57.6,51.8,30.00,ESE,112,0.0,4.5,81,0.00,,,0.00,WUHU21623XXSP,2013-05-18 12:45:00,
2013-05-18 07:50:00,57.6,51.8,30.00,East,90,0.0,0.0,81,0.00,,,0.00,WUHU21623XXSP,2013-05-18 12:50:00,
2013-05-18 07:55:00,57.9,52.1,30.00,SE,135,1.6,1.6,81,0.00,,,0.00,WUHU21623XXSP,2013-05-18 12:55:00,
2013-05-18 08:00:00,58.8,53.0,30.00,SE,135,2.0,2.0,81,0.00,,,0.00,WUHU21623XXSP,2013-05-18 13:00:00,
2013-05-18 08:05:00,59.5,53.4,29.99,SE,135,1.8,4.7,80,0.00,,,0.00,WUHU21623XXSP,2013-05-18 13:05:00,
2013-05-18 08:10:00,59.9,53.8,29.99,East,90,5.4,5.4,80,0.00,,,0.00,WUHU21623XXSP,2013-05-18 13:10:00,
2013-05-18 08:15:00,61.0,54.3,29.99,East,90,4.0,5.4,80,0.00,,,0.00,WUHU21623XXSP,2013-05-18 13:15:00,
2013-05-18 08:20:00,61.5,55.3,29.98,East,90,4.3,4.3,80,0.00,,,0.00,WUHU21623XXSP,2013-05-18 13:20:00,
2013-05-18 08:25:00,61.9,55.5,29.99,ESE,112,4.7,4.7,79,0.00,,,0.00,WUHU21623XXSP,2013-05-18 13:25:00,
2013-05-18 08:30:00,62.6,55.6,29.98,ENE,67,4.9,4.9,78,0.00,,,0.00,WUHU21623XXSP,2013-05-18 13:30:00,
2013-05-18 08:35:00,62.8,56.1,29.98,SE,135,4.3,4.9,79,0.00,,,0.00,WUHU21623XXSP,2013-05-18 13:35:00,
2013-05-18 08:40:00,63.1,56.1,29.98,ESE,112,4.9,4.9,78,0.00,,,0.00,WUHU21623XXSP,2013-05-18 13:40:00,
2013-05-18 08:45:00,63.9,56.8,29.99,East,90,4.5,5.1,78,0.00,,,0.00,WUHU21623XXSP,2013-05-18 13:45:00,
2013-05-18 08:50:00,64.0,57.0,29.98,SSE,157,0.0,5.1,78,0.00,,,0.00,WUHU21623XXSP,2013-05-18 13:50:00,
2013-05-18 08:55:00,64.2,57.2,29.98,South,180,1.6,3.6,78,0.00,,,0.00,WUHU21623XXSP,2013-05-18 13:55:00,
2013-05-18 09:00:00,64.9,58.3,29.99,ESE,112,2.0,3.6,79,0.00,,,0.00,WUHU21623XXSP,2013-05-18 14:00:00,
2013-05-18 09:05:00,65.5,58.8,29.99,East,90,4.5,7.6,79,0.00,,,0.00,WUHU21623XXSP,2013-05-18 14:05:00,
2013-05-18 09:10:00,65.8,58.8,29.99,SE,135,3.8,7.6,77,0.00,,,0.00,WUHU21623XXSP,2013-05-18 14:10:00,
2013-05-18 09:15:00,66.6,58.9,29.98,ESE,112,3.8,6.0,77,0.00,,,0.00,WUHU21623XXSP,2013-05-18 14:15:00,
2013-05-18 09:20:00,66.7,59.7,29.98,SE,135,1.6,6.0,78,0.00,,,0.00,WUHU21623XXSP,2013-05-18 14:20:00,
2013-05-18 09:25:00,67.3,59.9,29.99,SE,135,3.8,4.9,77,0.00,,,0.00,WUHU21623XXSP,2013-05-18 14:25:00,
2013-05-18 09:30:00,66.7,59.7,29.99,SW,225,4.7,7.4,78,0.00,,,0.00,WUHU21623XXSP,2013-05-18 14:30:00,
2013-05-18 09:35:00,67.3,60.2,29.99,SE,135,5.1,7.4,78,0.00,,,0.00,WUHU21623XXSP,2013-05-18 14:35:00,
2013-05-18 09:40:00,67.3,60.2,29.99,SSE,157,2.5,5.1,78,0.00,,,0.00,WUHU21623XXSP,2013-05-18 14:40:00,
2013-05-18 09:45:00,67.3,60.2,29.99,SSE,157,0.0,4.5,78,0.00,,,0.00,WUHU21623XXSP,2013-05-18 14:45:00,
2013-05-18 09:50:00,67.6,60.6,29.99,SSE,157,5.1,5.1,78,0.00,,,0.00,WUHU21623XXSP,2013-05-18 14:50:00,
2013-05-18 09:55:00,68.2,61.5,29.99,East,90,6.7,6.7,79,0.00,,,0.00,WUHU21623XXSP,2013-05-18 14:55:00,
2013-05-18 10:00:00,68.7,61.2,29.99,SSE,157,2.7,6.7,77,0.00,,,0.00,WUHU21623XXSP,2013-05-18 15:00:00,
2013-05-18 10:05:00,69.4,61.9,29.99,East,90,6.7,6.7,77,0.00,,,0.00,WUHU21623XXSP,2013-05-18 15:05:00,
2013-05-18 10:10:00,70.3,63.1,29.99,SE,135,3.1,6.7,78,0.00,,,0.00,WUHU21623XXSP,2013-05-18 15:10:00,
2013-05-18 10:15:00,71.4,62.7,29.98,SSE,157,2.5,7.4,74,0.00,,,0.00,WUHU21623XXSP,2013-05-18 15:15:00,
2013-05-18 10:20:00,70.9,62.5,29.98,ESE,112,3.1,7.4,75,0.00,,,0.00,WUHU21623XXSP,2013-05-18 15:20:00,
2013-05-18 10:25:00,70.5,62.2,29.99,SSE,157,2.0,6.0,75,0.00,,,0.00,WUHU21623XXSP,2013-05-18 15:25:00,
2013-05-18 10:30:00,71.2,63.2,29.99,SSE,157,3.8,6.0,76,0.00,,,0.00,WUHU21623XXSP,2013-05-18 15:30:00,
2013-05-18 10:35:00,71.8,63.4,30.00,ESE,112,0.0,3.8,75,0.00,,,0.00,WUHU21623XXSP,2013-05-18 15:35:00,
2013-05-18 10:40:00,72.0,63.2,30.00,East,90,2.0,2.5,74,0.00,,,0.00,WUHU21623XXSP,2013-05-18 15:40:00,
2013-05-18 10:45:00,71.1,62.7,29.99,SSW,202,0.0,3.6,75,0.00,,,0.00,WUHU21623XXSP,2013-05-18 15:45:00,
2013-05-18 10:50:00,71.4,62.9,29.99,NNW,337,0.0,3.6,75,0.00,,,0.00,WUHU21623XXSP,2013-05-18 15:50:00,
2013-05-18 10:55:00,71.4,63.4,30.00,ENE,67,2.7,2.7,76,0.00,,,0.00,WUHU21623XXSP,2013-05-18 15:55:00,
2013-05-18 11:00:00,72.1,63.8,30.00,East,90,4.0,4.0,76,0.00,,,0.00,WUHU21623XXSP,2013-05-18 16:00:00,
2013-05-18 11:05:00,72.7,64.3,30.00,SSW,202,0.0,4.0,75,0.00,,,0.00,WUHU21623XXSP,2013-05-18 16:05:00,
2013-05-18 11:10:00,73.0,64.3,30.00,West,270,0.0,3.1,74,0.00,,,0.00,WUHU21623XXSP,2013-05-18 16:10:00,
2013-05-18 11:15:00,72.7,63.9,30.00,East,90,3.6,3.6,74,0.00,,,0.00,WUHU21623XXSP,2013-05-18 16:15:00,
2013-05-18 11:20:00,72.1,63.8,30.00,SE,135,0.0,4.0,75,0.00,,,0.00,WUHU21623XXSP,2013-05-18 16:20:00,
2013-05-18 11:25:00,72.5,64.1,30.00,East,90,2.2,4.0,75,0.00,,,0.00,WUHU21623XXSP,2013-05-18 16:25:00,
2013-05-18 11:30:00,73.4,65.0,29.99,ESE,112,4.7,4.7,75,0.00,,,0.00,WUHU21623XXSP,2013-05-18 16:30:00,
2013-05-18 11:35:00,73.8,65.0,29.99,SE,135,4.5,4.7,74,0.00,,,0.00,WUHU21623XXSP,2013-05-18 16:35:00,
2013-05-18 11:40:00,73.9,65.5,29.99,East,90,3.6,4.5,75,0.00,,,0.00,WUHU21623XXSP,2013-05-18 16:40:00,
2013-05-18 11:45:00,74.8,65.1,29.98,ENE,67,0.0,3.6,73,0.00,,,0.00,WUHU21623XXSP,2013-05-18 16:45:00,
2013-05-18 11:50:00,74.8,65.6,29.98,East,90,6.3,7.4,73,0.00,,,0.00,WUHU21623XXSP,2013-05-18 16:50:00,
2013-05-18 11:55:00,75.0,65.8,29.98,South,180,0.0,7.4,73,0.00,,,0.00,WUHU21623XXSP,2013-05-18 16:55:00,
2013-05-18 12:00:00,75.0,65.4,29.98,SW,225,2.2,6.5,72,0.00,,,0.00,WUHU21623XXSP,2013-05-18 17:00:00,
2013-05-18 12:05:00,75.4,65.7,29.98,WSW,247,2.0,6.5,72,0.00,,,0.00,WUHU21623XXSP,2013-05-18 17:05:00,
2013-05-18 12:10:00,75.7,66.1,29.97,East,90,5.8,5.8,72,0.00,,,0.00,WUHU21623XXSP,2013-05-18 17:10:00,
2013-05-18 12:15:00,76.1,66.0,29.97,SSE,157,5.1,5.8,71,0.00,,,0.00,WUHU21623XXSP,2013-05-18 17:15:00,
2013-05-18 12:20:00,76.1,65.7,29.97,SE,135,4.5,5.1,70,0.00,,,0.00,WUHU21623XXSP,2013-05-18 17:20:00,
2013-05-18 12:25:00,76.3,65.8,29.97,SSE,157,0.7,4.5,70,0.00,,,0.00,WUHU21623XXSP,2013-05-18 17:25:00,
2013-05-18 12:30:00,77.2,66.3,29.97,SE,135,5.1,5.1,69,0.00,,,0.00,WUHU21623XXSP,2013-05-18 17:30:00,
2013-05-18 12:35:00,77.4,66.4,29.96,ESE,112,5.4,5.4,69,0.00,,,0.00,WUHU21623XXSP,2013-05-18 17:35:00,
2013-05-18 12:40:00,77.7,66.3,29.96,ENE,67,4.5,5.4,68,0.00,,,0.00,WUHU21623XXSP,2013-05-18 17:40:00,
2013-05-18 12:45:00,77.2,64.5,29.96,SSE,157,1.3,9.4,65,0.00,,,0.00,WUHU21623XXSP,2013-05-18 17:45:00,
2013-05-18 12:50:00,77.0,64.8,29.96,East,90,1.3,9.4,66,0.00,,,0.00,WUHU21623XXSP,2013-05-18 17:50:00,
2013-05-18 12:55:00,77.5,66.1,29.96,SSE,157,3.8,5.1,68,0.00,,,0.00,WUHU21623XXSP,2013-05-18 17:55:00,
2013-05-18 13:00:00,77.9,65.2,29.95,South,180,6.7,6.7,65,0.00,,,0.00,WUHU21623XXSP,2013-05-18 18:00:00,
2013-05-18 13:05:00,77.7,65.4,29.96,ESE,112,6.7,6.7,66,0.00,,,0.00,WUHU21623XXSP,2013-05-18 18:05:00,
2013-05-18 13:10:00,77.7,64.4,29.95,ESE,112,9.8,9.8,64,0.00,,,0.00,WUHU21623XXSP,2013-05-18 18:10:00,
2013-05-18 13:15:00,77.5,64.8,29.95,East,90,9.2,9.8,65,0.00,,,0.00,WUHU21623XXSP,2013-05-18 18:15:00,
2013-05-18 13:20:00,77.4,64.2,29.95,ESE,112,0.7,9.2,64,0.00,,,0.00,WUHU21623XXSP,2013-05-18 18:20:00,
2013-05-18 13:25:00,77.5,64.0,29.94,SSE,157,1.8,9.2,64,0.00,,,0.00,WUHU21623XXSP,2013-05-18 18:25:00,
2013-05-18 13:30:00,77.0,63.6,29.94,SSW,202,7.4,7.4,63,0.00,,,0.00,WUHU21623XXSP,2013-05-18 18:30:00,
2013-05-18 13:35:00,77.4,63.8,29.94,ESE,112,0.0,7.4,63,0.00,,,0.00,WUHU21623XXSP,2013-05-18 18:35:00,
2013-05-18 13:40:00,77.9,64.5,29.95,ESE,112,0.0,7.4,62,0.00,,,0.00,WUHU21623XXSP,2013-05-18 18:40:00,
2013-05-18 13:45:00,77.7,64.1,29.95,SSE,157,4.3,9.4,63,0.00,,,0.00,WUHU21623XXSP,2013-05-18 18:45:00,
2013-05-18 13:50:00,76.8,63.7,29.94,SE,135,2.9,9.4,64,0.00,,,0.00,WUHU21623XXSP,2013-05-18 18:50:00,
2013-05-18 13:55:00,76.6,63.5,29.94,SE,135,0.0,8.3,64,0.00,,,0.00,WUHU21623XXSP,2013-05-18 18:55:00,
2013-05-18 14:00:00,76.8,63.2,29.94,SSE,157,3.1,4.7,63,0.00,,,0.00,WUHU21623XXSP,2013-05-18 19:00:00,
2013-05-18 14:05:00,77.5,63.9,29.94,East,90,3.6,4.7,63,0.00,,,0.00,WUHU21623XXSP,2013-05-18 19:05:00,
2013-05-18 14:10:00,77.7,64.1,29.94,West,270,4.7,4.7,63,0.00,,,0.00,WUHU21623XXSP,2013-05-18 19:10:00,
2013-05-18 14:15:00,78.4,64.0,29.94,SSW,202,0.0,4.7,62,0.00,,,0.00,WUHU21623XXSP,2013-05-18 19:15:00,
2013-05-18 14:20:00,78.4,63.9,29.94,South,180,0.0,4.7,61,0.00,,,0.00,WUHU21623XXSP,2013-05-18 19:20:00,
2013-05-18 14:25:00,79.0,64.5,29.94,SSE,157,1.6,2.2,61,0.00,,,0.00,WUHU21623XXSP,2013-05-18 19:25:00,
2013-05-18 14:30:00,78.6,63.9,29.93,SSE,157,1.6,2.2,59,0.00,,,0.00,WUHU21623XXSP,2013-05-18 19:30:00,
2013-05-18 14:35:00,78.6,64.5,29.93,South,180,4.7,4.7,62,0.00,,,0.00,WUHU21623XXSP,2013-05-18 19:35:00,
2013-05-18 14:40:00,79.2,64.6,29.93,SSE,157,8.1,8.1,61,0.00,,,0.00,WUHU21623XXSP,2013-05-18 19:40:00,
2013-05-18 14:45:00,80.4,64.3,29.92,SSW,202,3.1,8.1,58,0.00,,,0.00,WUHU21623XXSP,2013-05-18 19:45:00,
2013-05-18 14:50:00,79.9,63.8,29.93,South,180,6.0,8.1,58,0.00,,,0.00,WUHU21623XXSP,2013-05-18 19:50:00,
2013-05-18 14:55:00,79.2,63.1,29.93,SSE,157,5.8,7.2,58,0.00,,,0.00,WUHU21623XXSP,2013-05-18 19:55:00,
2013-05-18 15:00:00,78.6,63.2,29.92,ESE,112,1.8,5.8,59,0.00,,,0.00,WUHU21623XXSP,2013-05-18 20:00:00,
2013-05-18 15:05:00,78.6,62.6,29.91,SE,135,4.0,6.3,58,0.00,,,0.00,WUHU21623XXSP,2013-05-18 20:05:00,
2013-05-18 15:10:00,79.0,64.0,29.92,SSW,202,3.1,6.3,60,0.00,,,0.00,WUHU21623XXSP,2013-05-18 20:10:00,
2013-05-18 15:15:00,79.3,63.8,29.91,SSE,157,0.0,4.0,59,0.00,,,0.00,WUHU21623XXSP,2013-05-18 20:15:00,
2013-05-18 15:20:00,79.5,64.0,29.91,South,180,0.0,2.5,59,0.00,,,0.00,WUHU21623XXSP,2013-05-18 20:20:00,
2013-05-18 15:25:00,80.4,64.8,29.91,ESE,112,2.0,2.5,59,0.00,,,0.00,WUHU21623XXSP,2013-05-18 20:25:00,
2013-05-18 15:30:00,79.7,64.1,29.90,SE,135,4.5,4.5,59,0.00,,,0.00,WUHU21623XXSP,2013-05-18 20:30:00,
2013-05-18 15:35:00,79.0,63.7,29.90,SSE,157,0.0,4.5,60,0.00,,,0.00,WUHU21623XXSP,2013-05-18 20:35:00,
2013-05-18 15:40:00,78.6,63.3,29.91,South,180,2.0,2.0,59,0.00,,,0.00,WUHU21623XXSP,2013-05-18 20:40:00,
2013-05-18 15:45:00,78.6,63.2,29.90,SSE,157,0.0,2.0,59,0.00,,,0.00,WUHU21623XXSP,2013-05-18 20:45:00,
2013-05-18 15:50:00,78.8,63.3,29.90,South,180,0.0,3.8,59,0.00,,,0.00,WUHU21623XXSP,2013-05-18 20:50:00,
2013-05-18 15:55:00,78.6,63.2,29.90,South,180,3.1,3.8,59,0.00,,,0.00,WUHU21623XXSP,2013-05-18 20:55:00,
2013-05-18 16:00:00,78.4,63.5,29.90,SE,135,6.9,6.9,60,0.00,,,0.00,WUHU21623XXSP,2013-05-18 21:00:00,
2013-05-18 16:05:00,78.3,63.3,29.90,SE,135,1.6,6.9,60,0.00,,,0.00,WUHU21623XXSP,2013-05-18 21:05:00,
2013-05-18 16:10:00,78.1,63.6,29.90,South,180,0.0,1.6,61,0.00,,,0.00,WUHU21623XXSP,2013-05-18 21:10:00,
2013-05-18 16:15:00,78.1,63.6,29.90,SSW,202,4.0,7.6,61,0.00,,,0.00,WUHU21623XXSP,2013-05-18 21:15:00,
2013-05-18 16:20:00,78.1,63.6,29.90,ESE,112,6.9,7.6,61,0.00,,,0.00,WUHU21623XXSP,2013-05-18 21:20:00,
2013-05-18 16:25:00,77.7,64.1,29.90,ESE,112,6.3,7.4,63,0.00,,,0.00,WUHU21623XXSP,2013-05-18 21:25:00,
2013-05-18 16:30:00,77.0,63.4,29.90,SE,135,8.3,8.3,63,0.00,,,0.00,WUHU21623XXSP,2013-05-18 21:30:00,
2013-05-18 16:35:00,76.8,63.7,29.90,East,90,7.2,8.3,64,0.00,,,0.00,WUHU21623XXSP,2013-05-18 21:35:00,
2013-05-18 16:40:00,76.6,63.5,29.90,ESE,112,6.9,7.2,64,0.00,,,0.00,WUHU21623XXSP,2013-05-18 21:40:00,
2013-05-18 16:45:00,76.6,64.0,29.90,ESE,112,7.8,8.7,65,0.00,,,0.00,WUHU21623XXSP,2013-05-18 21:45:00,
2013-05-18 16:50:00,76.8,63.5,29.89,East,90,2.7,8.7,65,0.00,,,0.00,WUHU21623XXSP,2013-05-18 21:50:00,
2013-05-18 16:55:00,77.0,64.1,29.90,East,90,2.7,2.7,66,0.00,,,0.00,WUHU21623XXSP,2013-05-18 21:55:00,
2013-05-18 17:00:00,77.5,64.7,29.90,East,90,2.9,2.9,65,0.00,,,0.00,WUHU21623XXSP,2013-05-18 22:00:00,
2013-05-18 17:05:00,77.5,64.4,29.89,SE,135,6.0,6.0,64,0.00,,,0.00,WUHU21623XXSP,2013-05-18 22:05:00,
2013-05-18 17:10:00,77.7,64.5,29.89,SE,135,4.5,6.0,64,0.00,,,0.00,WUHU21623XXSP,2013-05-18 22:10:00,
2013-05-18 17:15:00,77.9,64.9,29.89,SE,135,3.4,6.0,64,0.00,,,0.00,WUHU21623XXSP,2013-05-18 22:15:00,
2013-05-18 17:20:00,78.1,64.9,29.89,ESE,112,2.0,3.8,64,0.00,,,0.00,WUHU21623XXSP,2013-05-18 22:20:00,
2013-05-18 17:25:00,78.8,65.6,29.89,ESE,112,1.6,3.8,64,0.00,,,0.00,WUHU21623XXSP,2013-05-18 22:25:00,
2013-05-18 17:30:00,79.3,64.8,29.88,East,90,2.5,2.5,61,0.00,,,0.00,WUHU21623XXSP,2013-05-18 22:30:00,
2013-05-18 17:35:00,79.3,65.2,29.88,East,90,2.5,2.5,61,0.00,,,0.00,WUHU21623XXSP,2013-05-18 22:35:00,
2013-05-18 17:40:00,79.3,64.8,29.88,SSE,157,2.0,2.5,60,0.00,,,0.00,WUHU21623XXSP,2013-05-18 22:40:00,
2013-05-18 17:45:00,79.2,64.2,29.88,ESE,112,6.3,6.3,60,0.00,,,0.00,WUHU21623XXSP,2013-05-18 22:45:00,
2013-05-18 17:50:00,79.0,64.2,29.88,ESE,112,5.4,6.3,60,0.00,,,0.00,WUHU21623XXSP,2013-05-18 22:50:00,
2013-05-18 17:55:00,78.4,64.1,29.88,ESE,112,5.4,5.4,61,0.00,,,0.00,WUHU21623XXSP,2013-05-18 22:55:00,
2013-05-18 18:00:00,77.5,63.5,29.88,SSW,202,0.0,5.4,62,0.00,,,0.00,WUHU21623XXSP,2013-05-18 23:00:00,
2013-05-18 18:05:00,77.2,62.7,29.88,SE,135,3.6,5.4,61,0.00,,,0.00,WUHU21623XXSP,2013-05-18 23:05:00,
2013-05-18 18:10:00,76.8,62.3,29.88,ENE,67,0.0,3.6,61,0.00,,,0.00,WUHU21623XXSP,2013-05-18 23:10:00,
2013-05-18 18:15:00,77.5,63.0,29.88,ESE,112,0.0,5.1,61,0.00,,,0.00,WUHU21623XXSP,2013-05-18 23:15:00,
2013-05-18 18:20:00,78.1,63.6,29.88,ESE,112,2.0,5.1,61,0.00,,,0.00,WUHU21623XXSP,2013-05-18 23:20:00,
2013-05-18 18:25:00,78.6,63.0,29.88,South,180,0.0,2.0,59,0.00,,,0.00,WUHU21623XXSP,2013-05-18 23:25:00,
2013-05-18 18:30:00,78.6,63.7,29.88,ESE,112,1.6,1.6,59,0.00,,,0.00,WUHU21623XXSP,2013-05-18 23:30:00,
2013-05-18 18:35:00,78.6,63.2,29.88,ESE,112,1.6,1.6,58,0.00,,,0.00,WUHU21623XXSP,2013-05-18 23:35:00,
2013-05-18 18:40:00,78.4,63.0,29.88,SE,135,3.1,3.1,59,0.00,,,0.00,WUHU21623XXSP,2013-05-18 23:40:00,
2013-05-18 18:45:00,77.7,62.8,29.88,SE,135,0.0,3.1,60,0.00,,,0.00,WUHU21623XXSP,2013-05-18 23:45:00,
2013-05-18 18:50:00,77.5,62.8,29.88,South,180,0.0,0.9,59,0.00,,,0.00,WUHU21623XXSP,2013-05-18 23:50:00,
2013-05-18 18:55:00,77.2,62.7,29.88,SE,135,5.4,5.4,61,0.00,,,0.00,WUHU21623XXSP,2013-05-18 23:55:00,
2013-05-18 19:00:00,76.8,62.3,29.88,SSW,202,5.1,5.4,61,0.00,,,0.00,WUHU21623XXSP,2013-05-19 00:00:00,
2013-05-18 19:05:00,76.6,62.2,29.88,SE,135,0.0,5.1,61,0.00,,,0.00,WUHU21623XXSP,2013-05-19 00:05:00,
2013-05-18 19:10:00,75.9,62.0,29.88,ESE,112,0.0,0.0,62,0.00,,,0.00,WUHU21623XXSP,2013-05-19 00:10:00,
2013-05-18 19:15:00,75.9,61.5,29.88,SE,135,1.6,1.6,61,0.00,,,0.00,WUHU21623XXSP,2013-05-19 00:15:00,
2013-05-18 19:20:00,75.9,61.5,29.88,ESE,112,0.0,1.6,61,0.00,,,0.00,WUHU21623XXSP,2013-05-19 00:20:00,
2013-05-18 19:25:00,75.4,61.5,29.88,South,180,0.0,0.0,62,0.00,,,0.00,WUHU21623XXSP,2013-05-19 00:25:00,
2013-05-18 19:30:00,75.0,61.1,29.88,ENE,67,0.0,0.0,62,0.00,,,0.00,WUHU21623XXSP,2013-05-19 00:30:00,
2013-05-18 19:35:00,74.8,61.4,29.88,ENE,67,0.0,0.0,63,0.00,,,0.00,WUHU21623XXSP,2013-05-19 00:35:00,
2013-05-18 19:40:00,74.3,61.0,29.88,South,180,0.0,0.0,63,0.00,,,0.00,WUHU21623XXSP,2013-05-19 00:40:00,
2013-05-18 19:45:00,74.1,61.1,29.88,NE,45,0.0,0.0,64,0.00,,,0.00,WUHU21623XXSP,2013-05-19 00:45:00,
2013-05-18 19:50:00,73.6,60.9,29.88,ENE,67,0.0,0.0,65,0.00,,,0.00,WUHU21623XXSP,2013-05-19 00:50:00,
2013-05-18 19:55:00,73.0,60.5,29.88,East,90,0.0,0.0,65,0.00,,,0.00,WUHU21623XXSP,2013-05-19 00:55:00,
2013-05-18 20:00:00,72.7,60.2,29.88,SE,135,0.0,0.0,65,0.00,,,0.00,WUHU21623XXSP,2013-05-19 01:00:00,
2013-05-18 20:05:00,72.7,60.6,29.88,SE,135,0.0,0.0,66,0.00,,,0.00,WUHU21623XXSP,2013-05-19 01:05:00,
2013-05-18 20:10:00,72.3,60.3,29.88,ESE,112,0.0,0.0,66,0.00,,,0.00,WUHU21623XXSP,2013-05-19 01:10:00,
2013-05-18 20:15:00,72.1,60.6,29.88,ESE,112,0.0,0.0,67,0.00,,,0.00,WUHU21623XXSP,2013-05-19 01:15:00,
2013-05-18 20:20:00,71.6,60.5,29.88,ESE,112,0.0,0.0,68,0.00,,,0.00,WUHU21623XXSP,2013-05-19 01:20:00,
2013-05-18 20:25:00,71.2,60.5,29.89,ENE,67,0.0,0.0,69,0.00,,,0.00,WUHU21623XXSP,2013-05-19 01:25:00,
2013-05-18 20:30:00,70.9,60.2,29.89,ESE,112,0.0,0.0,69,0.00,,,0.00,WUHU21623XXSP,2013-05-19 01:30:00,
2013-05-18 20:35:00,70.3,60.1,29.88,SSE,157,0.0,0.0,70,0.00,,,0.00,WUHU21623XXSP,2013-05-19 01:35:00,
2013-05-18 20:40:00,70.0,60.1,29.88,ESE,112,0.0,0.0,71,0.00,,,0.00,WUHU21623XXSP,2013-05-19 01:40:00,
2013-05-18 20:45:00,69.8,59.9,29.89,ESE,112,0.0,0.0,71,0.00,,,0.00,WUHU21623XXSP,2013-05-19 01:45:00,
2013-05-18 20:50:00,69.6,59.8,29.89,ESE,112,0.0,0.0,72,0.00,,,0.00,WUHU21623XXSP,2013-05-19 01:50:00,
2013-05-18 20:55:00,69.3,59.8,29.89,East,90,0.0,0.0,72,0.00,,,0.00,WUHU21623XXSP,2013-05-19 01:55:00,
2013-05-18 21:00:00,68.7,59.9,29.88,East,90,0.0,0.0,73,0.00,,,0.00,WUHU21623XXSP,2013-05-19 02:00:00,
2013-05-18 21:05:00,68.2,59.5,29.89,East,90,0.0,0.0,73,0.00,,,0.00,WUHU21623XXSP,2013-05-19 02:05:00,
2013-05-18 21:10:00,67.6,59.3,29.89,East,90,0.0,0.0,75,0.00,,,0.00,WUHU21623XXSP,2013-05-19 02:10:00,
2013-05-18 21:15:00,67.8,59.6,29.89,ESE,112,0.0,0.0,75,0.00,,,0.00,WUHU21623XXSP,2013-05-19 02:15:00,
2013-05-18 21:20:00,67.8,59.6,29.89,East,90,0.0,0.0,75,0.00,,,0.00,WUHU21623XXSP,2013-05-19 02:20:00,
2013-05-18 21:25:00,66.9,59.1,29.89,East,90,0.0,0.0,76,0.00,,,0.00,WUHU21623XXSP,2013-05-19 02:25:00,
2013-05-18 21:30:00,66.2,58.8,29.89,East,90,0.0,0.0,77,0.00,,,0.00,WUHU21623XXSP,2013-05-19 02:30:00,
2013-05-18 21:35:00,65.5,58.4,29.89,East,90,0.0,0.0,78,0.00,,,0.00,WUHU21623XXSP,2013-05-19 02:35:00,
2013-05-18 21:40:00,64.8,58.5,29.89,East,90,0.0,0.0,80,0.00,,,0.00,WUHU21623XXSP,2013-05-19 02:40:00,
2013-05-18 21:45:00,64.4,58.4,29.89,East,90,0.0,0.0,81,0.00,,,0.00,WUHU21623XXSP,2013-05-19 02:45:00,
2013-05-18 21:50:00,64.0,58.3,29.89,East,90,0.0,0.0,81,0.00,,,0.00,WUHU21623XXSP,2013-05-19 02:50:00,
2013-05-18 21:55:00,63.5,57.9,29.89,East,90,0.0,0.0,82,0.00,,,0.00,WUHU21623XXSP,2013-05-19 02:55:00,
2013-05-18 22:00:00,63.3,58.0,29.89,East,90,0.0,0.0,83,0.00,,,0.00,WUHU21623XXSP,2013-05-19 03:00:00,
2013-05-18 22:05:00,63.0,58.0,29.89,East,90,0.0,0.0,84,0.00,,,0.00,WUHU21623XXSP,2013-05-19 03:05:00,
2013-05-18 22:10:00,62.4,57.8,29.89,East,90,0.0,0.0,85,0.00,,,0.00,WUHU21623XXSP,2013-05-19 03:10:00,
2013-05-18 22:15:00,62.4,57.8,29.88,East,90,0.0,0.0,85,0.00,,,0.00,WUHU21623XXSP,2013-05-19 03:15:00,
2013-05-18 22:20:00,63.0,58.7,29.88,NNE,22,0.0,0.0,86,0.00,,,0.00,WUHU21623XXSP,2013-05-19 03:20:00,
2013-05-18 22:25:00,62.8,58.2,29.89,NE,45,0.0,0.0,85,0.00,,,0.00,WUHU21623XXSP,2013-05-19 03:25:00,
2013-05-18 22:30:00,62.4,57.8,29.88,ENE,67,0.0,0.0,85,0.00,,,0.00,WUHU21623XXSP,2013-05-19 03:30:00,
2013-05-18 22:35:00,63.1,58.9,29.88,ENE,67,0.0,0.0,86,0.00,,,0.00,WUHU21623XXSP,2013-05-19 03:35:00,
2013-05-18 22:40:00,64.0,59.5,29.88,East,90,0.0,0.0,85,0.00,,,0.00,WUHU21623XXSP,2013-05-19 03:40:00,
2013-05-18 22:45:00,64.2,59.3,29.88,SE,135,0.0,0.0,84,0.00,,,0.00,WUHU21623XXSP,2013-05-19 03:45:00,
2013-05-18 22:50:00,64.2,58.9,29.88,SSE,157,0.0,0.0,83,0.00,,,0.00,WUHU21623XXSP,2013-05-19 03:50:00,
2013-05-18 22:55:00,64.2,58.9,29.88,SSE,157,0.0,0.0,83,0.00,,,0.00,WUHU21623XXSP,2013-05-19 03:55:00,
2013-05-18 23:00:00,64.9,59.5,29.88,ESE,112,0.0,0.0,83,0.00,,,0.00,WUHU21623XXSP,2013-05-19 04:00:00,
2013-05-18 23:01:00,64.9,59.5,29.88,ESE,112,0.0,0.0,83,0.00,,,0.00,WUHU21623XXSP,2013-05-19 04:01:00,
2013-05-18 23:06:00,64.8,59.1,29.88,SSE,157,2.9,2.9,81,0.00,,,0.00,WUHU21623XXSP,2013-05-19 04:06:00,
2013-05-18 23:11:00,64.6,58.6,29.87,ESE,112,0.0,2.9,81,0.00,,,0.00,WUHU21623XXSP,2013-05-19 04:11:00,
2013-05-18 23:16:00,64.6,58.9,29.88,ESE,112,0.0,0.0,82,0.00,,,0.00,WUHU21623XXSP,2013-05-19 04:16:00,
2013-05-18 23:21:00,64.9,59.1,29.87,ENE,67,0.0,0.0,82,0.00,,,0.00,WUHU21623XXSP,2013-05-19 04:21:00,
2013-05-18 23:26:00,64.9,59.0,29.87,ENE,67,0.0,0.0,81,0.00,,,0.00,WUHU21623XXSP,2013-05-19 04:26:00,
2013-05-18 23:31:00,64.9,59.0,29.88,SE,135,0.0,0.0,82,0.00,,,0.00,WUHU21623XXSP,2013-05-19 04:31:00,
2013-05-18 23:36:00,64.9,59.3,29.88,ESE,112,0.0,0.0,82,0.00,,,0.00,WUHU21623XXSP,2013-05-19 04:36:00,
2013-05-18 23:41:00,64.8,59.1,29.87,ESE,112,0.0,0.0,82,0.00,,,0.00,WUHU21623XXSP,2013-05-19 04:41:00,
2013-05-18 23:46:00,64.8,59.1,29.87,SSE,157,0.0,0.0,82,0.00,,,0.00,WUHU21623XXSP,2013-05-19 04:46:00,
2013-05-18 23:51:00,64.6,59.3,29.88,SE,135,0.0,0.0,83,0.00,,,0.00,WUHU21623XXSP,2013-05-19 04:51:00,
2013-05-18 23:56:00,64.6,59.3,29.88,SE,135,0.0,0.0,83,0.00,,,0.00,WUHU21623XXSP,2013-05-19 04:56:00,